Terminal Aerodrome Forecast
Issued by NWS Cleveland, OH

Home | Current Version | Previous Version | Graphics & Text | Print | Product List | Glossary Off
Versions: 1 2 3 4 5 6 7 8 9 10 11 12 13 14 15 16 17 18

000
FTUS41 KCLE 261724
TAFMFD
TAF
KMFD 261724Z 2618/2718 16006KT P6SM SCT045 BKN250
     FM262300 VRB03KT P6SM BKN250
     FM270900 18004KT P6SM BKN250
      TEMPO 2709/2713 5SM BR
     FM271600 19006KT P6SM -SHRA VCTS OVC035CB=

USA.gov is the U.S. government's official web portal to all federal, state and local government web resources and services.